Time;durP1;ratioP1;P1;durP2;ratioP2;P2;SDS_P1;SDS_P2;PMS_P1;PMS_P2;Temp;Humidity;BMP_temperature;BMP_pressure;BME280_temperature;BME280_humidity;BME280_pressure;Samples;Min_cycle;Max_cycle;Signal;HPM_P1;HPM_P2
2023/01/07 00:00:50;;;;;;;;;;;;;;;;;;4991521;28;1510;-39
2023/01/07 00:03:17;;;;;;;;;;;;;;;;;;4991769;28;1866;-40
2023/01/07 00:05:44;;;;;;;;;;;;;;;;;;4991400;28;1616;-39
2023/01/07 00:08:11;;;;;;;;;;;;;;;;;;4991339;28;2348;-39
2023/01/07 00:10:39;;;;;;;;;;;;;;;;;;4991189;28;1983;-39
2023/01/07 00:13:06;;;;;;;;;;;;;;;;;;4991303;28;1869;-39
2023/01/07 00:15:33;;;;;;;;;;;;;;;;;;4991396;28;1797;-39
2023/01/07 00:18:00;;;;;;;;;;;;;;;;;;4990943;28;2033;-39
2023/01/07 00:20:27;;;;;;;;;;;;;;;;;;4991194;28;1719;-39
2023/01/07 00:22:54;;;;;;;;;;;;;;;;;;4991182;28;1330;-39
2023/01/07 00:25:21;;;;;;;;;;;;;;;;;;4991157;28;1392;-39
2023/01/07 00:27:49;;;;;;;;;;;;;;;;;;4991025;28;1807;-39
2023/01/07 00:30:16;;;;;;;;;;;;;;;;;;4973694;28;1953;-38
2023/01/07 00:35:29;;;;;;;;;;;;;;;;;;4991014;28;1650;-39
2023/01/07 00:37:56;;;;;;;;;;;;;;;;;;4991020;28;1391;-39
2023/01/07 00:40:24;;;;;;;;;;;;;;;;;;4990924;28;1824;-41
2023/01/07 00:42:55;;;;;;;;;;;;;;;;;;4990977;28;1899;-39
2023/01/07 00:45:24;;;;;;;;;;;;;;;;;;4991404;28;1785;-39
2023/01/07 00:47:52;;;;;;;;;;;;;;;;;;4991446;28;1902;-39
2023/01/07 00:50:20;;;;;;;;;;;;;;;;;;4991351;28;1968;-39
2023/01/07 00:52:48;;;;;;;;;;;;;;;;;;4991402;28;1935;-39
2023/01/07 00:55:15;;;;;;;;;;;;;;;;;;4990219;28;1661;-39
2023/01/07 00:57:43;;;;;;;;;;;;;;;;;;4990713;28;1943;-39
2023/01/07 01:00:13;;;;;;;;;;;;;;;;;;4973627;28;1873;-39
2023/01/07 01:02:40;;;;;;;;;;;;;;;;;;4991058;28;1333;-39
2023/01/07 01:05:08;;;;;;;;;;;;;;;;;;4991705;28;1853;-39
2023/01/07 01:07:35;;;;;;;;;;;;;;;;;;4991441;28;1635;-39
2023/01/07 01:10:04;;;;;;;;;;;;;;;;;;4991442;28;2102;-39
2023/01/07 01:12:33;;;;;;;;;;;;;;;;;;4991455;28;2037;-40
2023/01/07 01:15:04;;;;;;;;;;;;;;;;;;4990260;28;1918;-39
2023/01/07 01:17:32;;;;;;;;;;;;;;;;;;4991085;28;2021;-39
2023/01/07 01:19:59;;;;;;;;;;;;;;;;;;4991595;28;2272;-39
2023/01/07 01:22:27;;;;;;;;;;;;;;;;;;4991549;28;1551;-39
2023/01/07 01:24:54;;;;;;;;;;;;;;;;;;4974241;28;2197;-39
2023/01/07 01:27:21;;;;;;;;;;;;;;;;;;4991355;28;1448;-39
2023/01/07 01:29:48;;;;;;;;;;;;;;;;;;4991030;28;1774;-39
2023/01/07 01:32:16;;;;;;;;;;;;;;;;;;4973460;28;1966;-40
2023/01/07 01:34:44;;;;;;;;;;;;;;;;;;4989867;28;1763;-39
2023/01/07 01:37:11;;;;;;;;;;;;;;;;;;4989910;28;2316;-39
2023/01/07 01:39:38;;;;;;;;;;;;;;;;;;4990898;28;1406;-40
2023/01/07 01:42:11;;;;;;;;;;;;;;;;;;4989652;28;1850;-39
2023/01/07 01:44:41;;;;;;;;;;;;;;;;;;4986064;28;1964;-39
2023/01/07 01:47:22;;;;;;;;;;;;;;;;;;4971818;28;1496;-39
2023/01/07 01:49:58;;;;;;;;;;;;;;;;;;4986480;28;1871;-39
2023/01/07 01:52:30;;;;;;;;;;;;;;;;;;4971438;28;1914;-39
2023/01/07 01:54:59;;;;;;;;;;;;;;;;;;4971490;28;2227;-40
2023/01/07 01:57:28;;;;;;;;;;;;;;;;;;4970163;28;1819;-39
2023/01/07 01:59:56;;;;;;;;;;;;;;;;;;4986289;28;2003;-40
2023/01/07 02:02:27;;;;;;;;;;;;;;;;;;4970340;28;1901;-39
2023/01/07 02:04:55;;;;;;;;;;;;;;;;;;4960561;28;2361;-40
2023/01/07 02:07:22;;;;;;;;;;;;;;;;;;4950846;29;2410;-40
2023/01/07 02:09:57;;;;;;;;;;;;;;;;;;4968313;28;1826;-39
2023/01/07 02:12:43;;;;;;;;;;;;;;;;;;4970380;28;2258;-39
2023/01/07 02:15:17;;;;;;;;;;;;;;;;;;4970235;28;1904;-39
2023/01/07 02:17:47;;;;;;;;;;;;;;;;;;4953715;29;1686;-39
2023/01/07 02:20:27;;;;;;;;;;;;;;;;;;4955541;28;1934;-39
2023/01/07 02:23:06;;;;;;;;;;;;;;;;;;4955494;28;1516;-38
2023/01/07 02:25:52;;;;;;;;;;;;;;;;;;4955430;28;2064;-38
2023/01/07 02:28:19;;;;;;;;;;;;;;;;;;4953938;29;1644;-38
2023/01/07 02:30:49;;;;;;;;;;;;;;;;;;4955409;28;1636;-39
2023/01/07 02:33:25;;;;;;;;;;;;;;;;;;4969873;28;2346;-39
2023/01/07 02:35:53;;;;;;;;;;;;;;;;;;4945207;28;1919;-39
2023/01/07 02:38:33;;;;;;;;;;;;;;;;;;4970780;28;1849;-40
2023/01/07 02:41:06;;;;;;;;;;;;;;;;;;4955022;29;1543;-39
2023/01/07 02:43:33;;;;;;;;;;;;;;;;;;4974966;28;1593;-39
2023/01/07 02:46:20;;;;;;;;;;;;;;;;;;4992588;28;1450;-40
2023/01/07 02:48:47;;;;;;;;;;;;;;;;;;4992325;28;2045;-39
2023/01/07 02:51:14;;;;;;;;;;;;;;;;;;4993531;28;1907;-39
2023/01/07 02:53:43;;;;;;;;;;;;;;;;;;4992309;28;2286;-39
2023/01/07 02:56:19;;;;;;;;;;;;;;;;;;4992304;28;1680;-39
2023/01/07 02:58:55;;;;;;;;;;;;;;;;;;4993394;28;1819;-39
2023/01/07 03:01:28;;;;;;;;;;;;;;;;;;4991662;28;1246;-39
2023/01/07 03:04:19;;;;;;;;;;;;;;;;;;4993442;28;1934;-39
2023/01/07 03:06:46;;;;;;;;;;;;;;;;;;4990545;28;1891;-39
2023/01/07 03:09:36;;;;;;;;;;;;;;;;;;4993336;28;1677;-39
2023/01/07 03:12:03;;;;;;;;;;;;;;;;;;4990338;28;1910;-39
2023/01/07 03:14:47;;;;;;;;;;;;;;;;;;4992153;28;1916;-39
2023/01/07 03:17:17;;;;;;;;;;;;;;;;;;4992954;28;1372;-39
2023/01/07 03:19:46;;;;;;;;;;;;;;;;;;4993228;28;2191;-39
2023/01/07 03:22:15;;;;;;;;;;;;;;;;;;4990488;28;1892;-39
2023/01/07 03:24:43;;;;;;;;;;;;;;;;;;4992889;28;1505;-39
2023/01/07 03:27:11;;;;;;;;;;;;;;;;;;4991907;28;1982;-39
2023/01/07 03:29:38;;;;;;;;;;;;;;;;;;4993280;28;1972;-39
2023/01/07 03:32:16;;;;;;;;;;;;;;;;;;4991724;28;1969;-39
2023/01/07 03:34:44;;;;;;;;;;;;;;;;;;4991114;28;2245;-39
2023/01/07 03:37:13;;;;;;;;;;;;;;;;;;4991477;28;2291;-39
2023/01/07 03:39:43;;;;;;;;;;;;;;;;;;4975209;28;2097;-39
2023/01/07 03:44:59;;;;;;;;;;;;;;;;;;4968481;28;1986;-39
2023/01/07 03:47:29;;;;;;;;;;;;;;;;;;4968638;28;1763;-39
2023/01/07 03:49:57;;;;;;;;;;;;;;;;;;4953956;29;1392;-39
2023/01/07 03:52:24;;;;;;;;;;;;;;;;;;4968526;28;1972;-39
2023/01/07 03:54:51;;;;;;;;;;;;;;;;;;4953638;28;1649;-39
2023/01/07 03:57:18;;;;;;;;;;;;;;;;;;4953780;28;1709;-39
2023/01/07 03:59:46;;;;;;;;;;;;;;;;;;4953398;28;2307;-39
2023/01/07 04:02:13;;;;;;;;;;;;;;;;;;4953498;29;1824;-39
2023/01/07 04:04:40;;;;;;;;;;;;;;;;;;4968320;28;1698;-39
2023/01/07 04:07:08;;;;;;;;;;;;;;;;;;4953829;28;2157;-39
2023/01/07 04:09:38;;;;;;;;;;;;;;;;;;4953550;29;1382;-39
2023/01/07 04:12:07;;;;;;;;;;;;;;;;;;4967977;28;1971;-39
2023/01/07 04:14:40;;;;;;;;;;;;;;;;;;4953516;29;1836;-39
2023/01/07 04:17:07;;;;;;;;;;;;;;;;;;4953540;29;1912;-39
2023/01/07 04:19:37;;;;;;;;;;;;;;;;;;4968121;28;1845;-39
2023/01/07 04:22:05;;;;;;;;;;;;;;;;;;4968037;28;2258;-39
2023/01/07 04:24:32;;;;;;;;;;;;;;;;;;4967982;28;1760;-39
2023/01/07 04:27:00;;;;;;;;;;;;;;;;;;4967219;28;2041;-39
2023/01/07 04:29:27;;;;;;;;;;;;;;;;;;4951388;28;2303;-39
2023/01/07 04:31:55;;;;;;;;;;;;;;;;;;4953098;28;1979;-39
2023/01/07 04:34:22;;;;;;;;;;;;;;;;;;4953092;28;1609;-39
2023/01/07 04:36:49;;;;;;;;;;;;;;;;;;4968008;28;1761;-39
2023/01/07 04:39:16;;;;;;;;;;;;;;;;;;4952838;28;1722;-39
2023/01/07 04:41:44;;;;;;;;;;;;;;;;;;4967971;28;2019;-39
2023/01/07 04:44:11;;;;;;;;;;;;;;;;;;4975481;28;1725;-39
2023/01/07 04:46:39;;;;;;;;;;;;;;;;;;4972333;28;1311;-39
2023/01/07 04:49:06;;;;;;;;;;;;;;;;;;4987139;28;1950;-39
2023/01/07 04:51:34;;;;;;;;;;;;;;;;;;4986948;28;1636;-39
2023/01/07 04:54:02;;;;;;;;;;;;;;;;;;4970819;28;1912;-39
2023/01/07 04:56:29;;;;;;;;;;;;;;;;;;4972137;28;1965;-39
2023/01/07 04:58:56;;;;;;;;;;;;;;;;;;4986946;28;1487;-39
2023/01/07 05:01:24;;;;;;;;;;;;;;;;;;4970756;28;2273;-39
2023/01/07 05:03:54;;;;;;;;;;;;;;;;;;4972069;28;1737;-39
2023/01/07 05:06:21;;;;;;;;;;;;;;;;;;4971969;28;2558;-39
2023/01/07 05:08:48;;;;;;;;;;;;;;;;;;4972115;28;2045;-39
2023/01/07 05:11:20;;;;;;;;;;;;;;;;;;4971030;28;2149;-39
2023/01/07 05:13:58;;;;;;;;;;;;;;;;;;4986755;28;1910;-39
2023/01/07 05:16:29;;;;;;;;;;;;;;;;;;4986788;28;1533;-39
2023/01/07 05:18:59;;;;;;;;;;;;;;;;;;4970211;28;1586;-39
2023/01/07 05:21:31;;;;;;;;;;;;;;;;;;4971824;28;2208;-39
2023/01/07 05:23:58;;;;;;;;;;;;;;;;;;4971780;28;1787;-39
2023/01/07 05:26:26;;;;;;;;;;;;;;;;;;4986751;28;1909;-40
2023/01/07 05:28:54;;;;;;;;;;;;;;;;;;4986949;28;1384;-40
2023/01/07 05:31:21;;;;;;;;;;;;;;;;;;4986398;28;2170;-39
2023/01/07 05:33:48;;;;;;;;;;;;;;;;;;4971780;28;1979;-40
2023/01/07 05:36:15;;;;;;;;;;;;;;;;;;4966707;28;1406;-39
2023/01/07 05:38:43;;;;;;;;;;;;;;;;;;4967013;28;2401;-39
2023/01/07 05:41:10;;;;;;;;;;;;;;;;;;4967203;28;2007;-39
2023/01/07 05:43:38;;;;;;;;;;;;;;;;;;4973327;28;1837;-39
2023/01/07 05:46:05;;;;;;;;;;;;;;;;;;4994093;28;1941;-39
2023/01/07 05:48:32;;;;;;;;;;;;;;;;;;4994868;28;1694;-39
2023/01/07 05:51:00;;;;;;;;;;;;;;;;;;4994734;28;2025;-39
2023/01/07 05:53:27;;;;;;;;;;;;;;;;;;4994705;28;2010;-40
2023/01/07 05:55:55;;;;;;;;;;;;;;;;;;4994521;28;1281;-39
2023/01/07 05:58:23;;;;;;;;;;;;;;;;;;4994612;28;2044;-39
2023/01/07 06:00:50;;;;;;;;;;;;;;;;;;4994312;28;1500;-39
2023/01/07 06:03:17;;;;;;;;;;;;;;;;;;4994650;28;2350;-39
2023/01/07 06:05:44;;;;;;;;;;;;;;;;;;4994712;28;2020;-39
2023/01/07 06:08:12;;;;;;;;;;;;;;;;;;4994214;28;2096;-39
2023/01/07 06:10:39;;;;;;;;;;;;;;;;;;4994410;28;2120;-39
2023/01/07 06:13:06;;;;;;;;;;;;;;;;;;4993940;28;1906;-39
2023/01/07 06:15:33;;;;;;;;;;;;;;;;;;4994175;28;1488;-40
2023/01/07 06:18:01;;;;;;;;;;;;;;;;;;4994261;28;2018;-40
2023/01/07 06:20:33;;;;;;;;;;;;;;;;;;4977069;28;1649;-39
2023/01/07 06:23:01;;;;;;;;;;;;;;;;;;4994063;28;1567;-39
2023/01/07 06:25:29;;;;;;;;;;;;;;;;;;4993925;28;9666;-39
2023/01/07 06:27:57;;;;;;;;;;;;;;;;;;4993838;28;2035;-40
2023/01/07 06:30:24;;;;;;;;;;;;;;;;;;4994138;28;2293;-40
2023/01/07 06:32:52;;;;;;;;;;;;;;;;;;4993953;28;1973;-40
2023/01/07 06:35:19;;;;;;;;;;;;;;;;;;4993985;28;2024;-40
2023/01/07 06:37:46;;;;;;;;;;;;;;;;;;4994115;28;1880;-39
2023/01/07 06:40:14;;;;;;;;;;;;;;;;;;4993481;28;1892;-39
2023/01/07 06:42:41;;;;;;;;;;;;;;;;;;4993938;28;1508;-39
2023/01/07 06:45:09;;;;;;;;;;;;;;;;;;4993695;28;2112;-39
2023/01/07 06:47:36;;;;;;;;;;;;;;;;;;4993419;28;1293;-40
2023/01/07 06:50:04;;;;;;;;;;;;;;;;;;4993879;28;2186;-40
2023/01/07 06:52:31;;;;;;;;;;;;;;;;;;4993315;28;2209;-40
2023/01/07 06:54:58;;;;;;;;;;;;;;;;;;4993417;28;2249;-40
2023/01/07 06:57:25;;;;;;;;;;;;;;;;;;4993906;28;2162;-40
2023/01/07 06:59:52;;;;;;;;;;;;;;;;;;4993504;28;2099;-39
2023/01/07 07:02:21;;;;;;;;;;;;;;;;;;4993721;28;1414;-39
2023/01/07 07:04:48;;;;;;;;;;;;;;;;;;4993445;28;1390;-39
2023/01/07 07:07:17;;;;;;;;;;;;;;;;;;4993367;28;1902;-39
2023/01/07 07:09:45;;;;;;;;;;;;;;;;;;4993071;28;1262;-39
2023/01/07 07:12:12;;;;;;;;;;;;;;;;;;4992440;28;2104;-40
2023/01/07 07:14:39;;;;;;;;;;;;;;;;;;4993006;28;1975;-39
2023/01/07 07:17:06;;;;;;;;;;;;;;;;;;4992136;28;1315;-39
2023/01/07 07:19:33;;;;;;;;;;;;;;;;;;4992787;28;1554;-40
2023/01/07 07:22:01;;;;;;;;;;;;;;;;;;4992190;28;2211;-40
2023/01/07 07:24:30;;;;;;;;;;;;;;;;;;4992653;28;2150;-39
2023/01/07 07:26:58;;;;;;;;;;;;;;;;;;4993192;28;1350;-39
2023/01/07 07:29:26;;;;;;;;;;;;;;;;;;4992938;28;1475;-39
2023/01/07 07:31:53;;;;;;;;;;;;;;;;;;4993051;28;2111;-41
2023/01/07 07:34:20;;;;;;;;;;;;;;;;;;4992626;28;1894;-39
2023/01/07 07:36:50;;;;;;;;;;;;;;;;;;4992528;28;1580;-39
2023/01/07 07:39:17;;;;;;;;;;;;;;;;;;4993078;28;1710;-39
2023/01/07 07:41:44;;;;;;;;;;;;;;;;;;4992559;28;2262;-39
2023/01/07 07:44:15;;;;;;;;;;;;;;;;;;4974787;28;2170;-39
2023/01/07 07:46:42;;;;;;;;;;;;;;;;;;4992384;28;1296;-40
2023/01/07 07:49:10;;;;;;;;;;;;;;;;;;4992425;28;2014;-39
2023/01/07 07:51:37;;;;;;;;;;;;;;;;;;4992537;28;1882;-40
2023/01/07 07:54:04;;;;;;;;;;;;;;;;;;4992433;28;1996;-39
2023/01/07 07:56:31;;;;;;;;;;;;;;;;;;4992151;28;2138;-39
2023/01/07 07:58:59;;;;;;;;;;;;;;;;;;4992738;28;1601;-39
2023/01/07 08:01:26;;;;;;;;;;;;;;;;;;4992578;28;1382;-39
2023/01/07 08:03:53;;;;;;;;;;;;;;;;;;4992466;28;1781;-40
2023/01/07 08:06:20;;;;;;;;;;;;;;;;;;4992460;28;1566;-39
2023/01/07 08:08:47;;;;;;;;;;;;;;;;;;4991652;28;2039;-39
2023/01/07 08:11:14;;;;;;;;;;;;;;;;;;4992172;28;2103;-40
2023/01/07 08:13:41;;;;;;;;;;;;;;;;;;4992066;28;1906;-39
2023/01/07 08:16:09;;;;;;;;;;;;;;;;;;4992430;28;2113;-39
2023/01/07 08:18:36;;;;;;;;;;;;;;;;;;4992169;28;1412;-39
2023/01/07 08:21:06;;;;;;;;;;;;;;;;;;4991871;28;1766;-38
2023/01/07 08:23:33;;;;;;;;;;;;;;;;;;4991927;28;2133;-39
2023/01/07 08:26:02;;;;;;;;;;;;;;;;;;4991906;28;1805;-38
2023/01/07 08:28:30;;;;;;;;;;;;;;;;;;4991534;28;1455;-39
2023/01/07 08:31:03;;;;;;;;;;;;;;;;;;4992176;28;1572;-39
2023/01/07 08:33:32;;;;;;;;;;;;;;;;;;4991523;28;1904;-39
2023/01/07 08:36:00;;;;;;;;;;;;;;;;;;4991769;28;1668;-39
2023/01/07 08:38:31;;;;;;;;;;;;;;;;;;4991651;28;1324;-39
2023/01/07 08:40:58;;;;;;;;;;;;;;;;;;4991498;28;1222;-39
2023/01/07 08:43:26;;;;;;;;;;;;;;;;;;4991601;28;2103;-38
2023/01/07 08:45:53;;;;;;;;;;;;;;;;;;4991323;28;1715;-39
2023/01/07 08:48:20;;;;;;;;;;;;;;;;;;4991632;28;1625;-39
2023/01/07 08:50:49;;;;;;;;;;;;;;;;;;4991598;28;2008;-39
2023/01/07 08:53:17;;;;;;;;;;;;;;;;;;4991497;28;1967;-39
2023/01/07 08:55:44;;;;;;;;;;;;;;;;;;4991184;28;1628;-39
2023/01/07 08:58:11;;;;;;;;;;;;;;;;;;4991515;28;1530;-39
2023/01/07 09:00:39;;;;;;;;;;;;;;;;;;4991452;28;1898;-39
2023/01/07 09:03:07;;;;;;;;;;;;;;;;;;4991302;28;2071;-39
2023/01/07 09:05:34;;;;;;;;;;;;;;;;;;4991216;28;1335;-39
2023/01/07 09:08:03;;;;;;;;;;;;;;;;;;4991113;28;1662;-39
2023/01/07 09:10:31;;;;;;;;;;;;;;;;;;4991612;28;2047;-39
2023/01/07 09:12:58;;;;;;;;;;;;;;;;;;4991651;28;2007;-39
2023/01/07 09:15:26;;;;;;;;;;;;;;;;;;4991379;28;1649;-39
2023/01/07 09:17:56;;;;;;;;;;;;;;;;;;4991237;28;1794;-39
2023/01/07 09:20:23;;;;;;;;;;;;;;;;;;4993464;28;1861;-39
2023/01/07 09:22:51;;;;;;;;;;;;;;;;;;4994914;28;1240;-39
2023/01/07 09:25:18;;;;;;;;;;;;;;;;;;4995107;28;1669;-39
2023/01/07 09:27:45;;;;;;;;;;;;;;;;;;4994904;28;1122;-39
2023/01/07 09:30:12;;;;;;;;;;;;;;;;;;4995169;28;1273;-39
2023/01/07 09:32:41;;;;;;;;;;;;;;;;;;4994963;28;1983;-39
2023/01/07 09:35:08;;;;;;;;;;;;;;;;;;4995025;28;2184;-39
2023/01/07 09:37:35;;;;;;;;;;;;;;;;;;4993830;28;1769;-39
2023/01/07 09:40:04;;;;;;;;;;;;;;;;;;4995100;28;2000;-39
2023/01/07 09:42:39;;;;;;;;;;;;;;;;;;4995008;28;1418;-39
2023/01/07 09:45:15;;;;;;;;;;;;;;;;;;4994674;28;2033;-39
2023/01/07 09:47:44;;;;;;;;;;;;;;;;;;4994462;28;2271;-40
2023/01/07 09:50:11;;;;;;;;;;;;;;;;;;4994819;28;1744;-40
2023/01/07 09:52:44;;;;;;;;;;;;;;;;;;4995033;28;2047;-39
2023/01/07 09:55:31;;;;;;;;;;;;;;;;;;4994629;28;1927;-39
2023/01/07 09:57:59;;;;;;;;;;;;;;;;;;4994392;28;1698;-39
2023/01/07 10:00:27;;;;;;;;;;;;;;;;;;4994468;28;1748;-39
2023/01/07 10:03:03;;;;;;;;;;;;;;;;;;4994662;28;1963;-39
2023/01/07 10:05:35;;;;;;;;;;;;;;;;;;4994596;28;2107;-39
2023/01/07 10:08:03;;;;;;;;;;;;;;;;;;4995120;28;1689;-39
2023/01/07 10:11:09;;;;;;;;;;;;;;;;;;4994348;28;2149;-40
2023/01/07 10:13:36;;;;;;;;;;;;;;;;;;4994119;28;1981;-39
2023/01/07 10:16:29;;;;;;;;;;;;;;;;;;4994601;28;2186;-39
2023/01/07 10:19:06;;;;;;;;;;;;;;;;;;4991649;28;1530;-39
2023/01/07 10:21:33;;;;;;;;;;;;;;;;;;4994245;28;1847;-39
2023/01/07 10:24:22;;;;;;;;;;;;;;;;;;4994298;28;2162;-39
2023/01/07 10:26:52;;;;;;;;;;;;;;;;;;4993981;28;1751;-39
2023/01/07 10:29:29;;;;;;;;;;;;;;;;;;4993803;28;1441;-40
2023/01/07 10:31:58;;;;;;;;;;;;;;;;;;4993485;28;1556;-39
2023/01/07 10:34:29;;;;;;;;;;;;;;;;;;4993995;28;1914;-39
2023/01/07 10:37:00;;;;;;;;;;;;;;;;;;4993923;28;2019;-38
2023/01/07 10:39:27;;;;;;;;;;;;;;;;;;4993738;28;1827;-39
2023/01/07 10:42:00;;;;;;;;;;;;;;;;;;4993731;28;1528;-39
2023/01/07 10:44:46;;;;;;;;;;;;;;;;;;4993459;28;1650;-39
2023/01/07 10:47:23;;;;;;;;;;;;;;;;;;4993718;28;1683;-39
2023/01/07 10:50:09;;;;;;;;;;;;;;;;;;4994265;28;1949;-39
2023/01/07 10:52:42;;;;;;;;;;;;;;;;;;4993767;28;2145;-39
2023/01/07 10:55:16;;;;;;;;;;;;;;;;;;4993577;28;2279;-39
2023/01/07 10:57:43;;;;;;;;;;;;;;;;;;4993444;28;1863;-39
2023/01/07 11:00:13;;;;;;;;;;;;;;;;;;4993620;28;1694;-38
2023/01/07 11:02:45;;;;;;;;;;;;;;;;;;4993197;28;1333;-39
2023/01/07 11:05:12;;;;;;;;;;;;;;;;;;4975917;28;1498;-39
2023/01/07 11:07:45;;;;;;;;;;;;;;;;;;4993208;28;1606;-39
2023/01/07 11:10:18;;;;;;;;;;;;;;;;;;4975880;28;1953;-38
2023/01/07 11:13:00;;;;;;;;;;;;;;;;;;4993188;28;1922;-38
2023/01/07 11:15:33;;;;;;;;;;;;;;;;;;4993083;28;2131;-38
2023/01/07 11:18:10;;;;;;;;;;;;;;;;;;4993538;28;1871;-38
2023/01/07 11:20:41;;;;;;;;;;;;;;;;;;4993032;28;2014;-38
2023/01/07 11:23:21;;;;;;;;;;;;;;;;;;4993212;28;1952;-39
2023/01/07 11:25:48;;;;;;;;;;;;;;;;;;4993001;28;2071;-38
2023/01/07 11:28:20;;;;;;;;;;;;;;;;;;4993006;28;1397;-39
2023/01/07 11:30:55;;;;;;;;;;;;;;;;;;4992757;28;1629;-39
2023/01/07 11:33:24;;;;;;;;;;;;;;;;;;4992945;28;1807;-39
2023/01/07 11:36:11;;;;;;;;;;;;;;;;;;4992724;28;1926;-39
2023/01/07 11:38:38;;;;;;;;;;;;;;;;;;4992965;28;2138;-38
2023/01/07 11:41:16;;;;;;;;;;;;;;;;;;4992908;28;2018;-38
2023/01/07 11:43:46;;;;;;;;;;;;;;;;;;4991368;28;1739;-38
2023/01/07 11:46:15;;;;;;;;;;;;;;;;;;4992727;28;1983;-39
2023/01/07 11:48:51;;;;;;;;;;;;;;;;;;4992421;28;1808;-39
2023/01/07 11:51:20;;;;;;;;;;;;;;;;;;4992501;28;2043;-38
2023/01/07 11:53:51;;;;;;;;;;;;;;;;;;4992341;28;2010;-38
2023/01/07 11:56:20;;;;;;;;;;;;;;;;;;4992307;28;1845;-38
2023/01/07 11:58:49;;;;;;;;;;;;;;;;;;4975120;28;1829;-38
2023/01/07 12:01:20;;;;;;;;;;;;;;;;;;4992361;28;1804;-39
2023/01/07 12:03:51;;;;;;;;;;;;;;;;;;4992362;28;1634;-38
2023/01/07 12:06:26;;;;;;;;;;;;;;;;;;4992058;28;1826;-38
2023/01/07 12:09:00;;;;;;;;;;;;;;;;;;4975053;28;1637;-38
2023/01/07 12:11:31;;;;;;;;;;;;;;;;;;4991928;28;2173;-38
2023/01/07 12:14:05;;;;;;;;;;;;;;;;;;4992066;28;1908;-39
2023/01/07 12:16:34;;;;;;;;;;;;;;;;;;4992195;28;1604;-38
2023/01/07 12:19:04;;;;;;;;;;;;;;;;;;4991868;28;2085;-38
2023/01/07 12:21:37;;;;;;;;;;;;;;;;;;4992088;28;1553;-38
2023/01/07 12:24:23;;;;;;;;;;;;;;;;;;4991506;28;1482;-38
2023/01/07 12:26:59;;;;;;;;;;;;;;;;;;4991867;28;1497;-38
2023/01/07 12:29:45;;;;;;;;;;;;;;;;;;4991749;28;2107;-38
2023/01/07 12:32:28;;;;;;;;;;;;;;;;;;4991812;28;1703;-38
2023/01/07 12:35:00;;;;;;;;;;;;;;;;;;4991798;28;1914;-38
2023/01/07 12:37:40;;;;;;;;;;;;;;;;;;4991968;28;1797;-38
2023/01/07 12:40:18;;;;;;;;;;;;;;;;;;4991644;28;1377;-38
2023/01/07 12:43:02;;;;;;;;;;;;;;;;;;4991643;28;1613;-38
2023/01/07 12:45:38;;;;;;;;;;;;;;;;;;4991170;28;2136;-37
2023/01/07 12:48:10;;;;;;;;;;;;;;;;;;4991773;28;1799;-38
2023/01/07 12:50:39;;;;;;;;;;;;;;;;;;4991613;28;1915;-38
2023/01/07 12:53:25;;;;;;;;;;;;;;;;;;4991158;28;1703;-39
2023/01/07 12:55:58;;;;;;;;;;;;;;;;;;4991588;28;1914;-39
2023/01/07 12:58:37;;;;;;;;;;;;;;;;;;4991514;28;1776;-38
2023/01/07 13:01:23;;;;;;;;;;;;;;;;;;4990352;28;2428;-38
2023/01/07 13:04:00;;;;;;;;;;;;;;;;;;4991735;28;2081;-38
2023/01/07 13:06:35;;;;;;;;;;;;;;;;;;4991363;28;1842;-38
2023/01/07 13:09:07;;;;;;;;;;;;;;;;;;4991325;28;1688;-38
2023/01/07 13:14:37;;;;;;;;;;;;;;;;;;4991483;28;2131;-39
2023/01/07 13:17:19;;;;;;;;;;;;;;;;;;4991674;28;1838;-39
2023/01/07 13:19:46;;;;;;;;;;;;;;;;;;4991685;28;1815;-38
2023/01/07 13:22:33;;;;;;;;;;;;;;;;;;4991290;28;2063;-38
2023/01/07 13:25:11;;;;;;;;;;;;;;;;;;4981573;28;2037;-38
2023/01/07 13:27:57;;;;;;;;;;;;;;;;;;4991091;28;1675;-39
2023/01/07 13:30:27;;;;;;;;;;;;;;;;;;4991220;28;1599;-38
2023/01/07 13:33:03;;;;;;;;;;;;;;;;;;4991271;28;1904;-38
2023/01/07 13:35:52;;;;;;;;;;;;;;;;;;4991072;28;2021;-37
2023/01/07 13:38:28;;;;;;;;;;;;;;;;;;4971789;28;1775;-38
2023/01/07 13:41:14;;;;;;;;;;;;;;;;;;4971759;28;1961;-38
2023/01/07 13:43:54;;;;;;;;;;;;;;;;;;4971441;28;1799;-38
2023/01/07 13:46:26;;;;;;;;;;;;;;;;;;4971751;28;1448;-39
2023/01/07 13:48:57;;;;;;;;;;;;;;;;;;4971577;28;2182;-38
2023/01/07 13:51:35;;;;;;;;;;;;;;;;;;4971603;28;1457;-38
2023/01/07 13:54:03;;;;;;;;;;;;;;;;;;4971594;28;1989;-39
2023/01/07 13:56:34;;;;;;;;;;;;;;;;;;4971973;28;1520;-38
2023/01/07 13:59:02;;;;;;;;;;;;;;;;;;4971383;28;1672;-38
2023/01/07 14:01:33;;;;;;;;;;;;;;;;;;4971723;28;2009;-38
2023/01/07 14:04:05;;;;;;;;;;;;;;;;;;4971250;28;2005;-38
2023/01/07 14:06:37;;;;;;;;;;;;;;;;;;4974245;28;1806;-38
2023/01/07 14:09:05;;;;;;;;;;;;;;;;;;4974954;28;2309;-38
2023/01/07 14:11:32;;;;;;;;;;;;;;;;;;4975060;28;1841;-38
2023/01/07 14:14:15;;;;;;;;;;;;;;;;;;4975092;28;1839;-39
2023/01/07 14:16:50;;;;;;;;;;;;;;;;;;4974947;28;1577;-39
2023/01/07 14:19:38;;;;;;;;;;;;;;;;;;4973696;28;2340;-38
2023/01/07 14:22:25;;;;;;;;;;;;;;;;;;4974849;28;1901;-41
2023/01/07 14:25:02;;;;;;;;;;;;;;;;;;4974723;28;1654;-39
2023/01/07 14:27:41;;;;;;;;;;;;;;;;;;4974887;28;1429;-39
2023/01/07 14:30:19;;;;;;;;;;;;;;;;;;4974707;28;1919;-39
2023/01/07 14:33:15;;;;;;;;;;;;;;;;;;4974725;28;1988;-40
2023/01/07 14:35:51;;;;;;;;;;;;;;;;;;4971994;28;2008;-45
2023/01/07 14:38:40;;;;;;;;;;;;;;;;;;4994183;28;1495;-51
2023/01/07 14:41:09;;;;;;;;;;;;;;;;;;4987513;28;1775;-44
2023/01/07 14:43:42;;;;;;;;;;;;;;;;;;4993717;28;1794;-38
2023/01/07 14:46:29;;;;;;;;;;;;;;;;;;4993862;28;2146;-39
2023/01/07 14:48:57;;;;;;;;;;;;;;;;;;4993744;28;1813;-38
2023/01/07 14:51:42;;;;;;;;;;;;;;;;;;4993615;28;1801;-39
2023/01/07 14:54:29;;;;;;;;;;;;;;;;;;4994174;28;1728;-38
2023/01/07 14:57:15;;;;;;;;;;;;;;;;;;4993859;28;1614;-40
2023/01/07 14:59:42;;;;;;;;;;;;;;;;;;4993523;28;1738;-39
2023/01/07 15:02:47;;;;;;;;;;;;;;;;;;4993713;28;1688;-39
2023/01/07 15:05:26;;;;;;;;;;;;;;;;;;4952506;29;2154;-39
2023/01/07 15:15:59;;;;;;;;;;;;;;;;;;4989183;28;1720;-39
2023/01/07 15:16:25;;;;;;;;;;;;;;;;;;4992755;28;2089;-39
2023/01/07 15:18:53;;;;;;;;;;;;;;;;;;4992826;28;1338;-39
2023/01/07 15:21:39;;;;;;;;;;;;;;;;;;4993829;28;2191;-39
2023/01/07 15:24:25;;;;;;;;;;;;;;;;;;4993263;28;1913;-39
2023/01/07 15:27:17;;;;;;;;;;;;;;;;;;4993354;28;1916;-39
2023/01/07 15:29:59;;;;;;;;;;;;;;;;;;4993459;28;2066;-39
2023/01/07 15:32:39;;;;;;;;;;;;;;;;;;4993184;28;1261;-39
2023/01/07 15:35:17;;;;;;;;;;;;;;;;;;4993168;28;2314;-39
2023/01/07 15:37:45;;;;;;;;;;;;;;;;;;4992718;28;1692;-39
2023/01/07 15:40:20;;;;;;;;;;;;;;;;;;4991761;28;1898;-39
2023/01/07 15:42:48;;;;;;;;;;;;;;;;;;4992806;28;1433;-39
2023/01/07 15:45:17;;;;;;;;;;;;;;;;;;4992824;28;1830;-39
2023/01/07 15:47:45;;;;;;;;;;;;;;;;;;4991410;28;1370;-39
2023/01/07 15:50:18;;;;;;;;;;;;;;;;;;4992610;28;1798;-39
2023/01/07 15:52:50;;;;;;;;;;;;;;;;;;4992836;28;1592;-39
2023/01/07 15:55:55;;;;;;;;;;;;;;;;;;4992763;28;2024;-39
2023/01/07 15:58:32;;;;;;;;;;;;;;;;;;4984017;28;1825;-38
2023/01/07 16:01:00;;;;;;;;;;;;;;;;;;4975318;28;1696;-39
2023/01/07 16:03:27;;;;;;;;;;;;;;;;;;4992751;28;2043;-39
2023/01/07 16:05:55;;;;;;;;;;;;;;;;;;4992740;28;9625;-38
2023/01/07 16:08:26;;;;;;;;;;;;;;;;;;4992678;28;2032;-37
2023/01/07 16:11:13;;;;;;;;;;;;;;;;;;4992439;28;1541;-38
2023/01/07 16:13:53;;;;;;;;;;;;;;;;;;4985528;28;1709;-38
2023/01/07 16:16:20;;;;;;;;;;;;;;;;;;4992480;28;1997;-38
2023/01/07 16:18:53;;;;;;;;;;;;;;;;;;4992272;28;1745;-38
2023/01/07 16:21:21;;;;;;;;;;;;;;;;;;4992409;28;1985;-39
2023/01/07 16:23:48;;;;;;;;;;;;;;;;;;4990693;28;2135;-38
2023/01/07 16:26:17;;;;;;;;;;;;;;;;;;4992200;28;2005;-38
2023/01/07 16:28:52;;;;;;;;;;;;;;;;;;4991811;28;1514;-38
2023/01/07 16:31:20;;;;;;;;;;;;;;;;;;4991975;28;2151;-38
2023/01/07 16:33:49;;;;;;;;;;;;;;;;;;4992091;28;1985;-39
2023/01/07 16:36:19;;;;;;;;;;;;;;;;;;4986501;28;2132;-38
2023/01/07 16:38:49;;;;;;;;;;;;;;;;;;4971572;28;2038;-40
2023/01/07 16:41:23;;;;;;;;;;;;;;;;;;4972385;28;1593;-39
2023/01/07 16:43:54;;;;;;;;;;;;;;;;;;4972522;28;1855;-39
2023/01/07 16:46:37;;;;;;;;;;;;;;;;;;4972247;28;2026;-41
2023/01/07 16:49:07;;;;;;;;;;;;;;;;;;4972453;28;2136;-39
2023/01/07 16:51:53;;;;;;;;;;;;;;;;;;4972203;28;2016;-39
2023/01/07 16:54:23;;;;;;;;;;;;;;;;;;4972600;28;1904;-39
2023/01/07 16:56:51;;;;;;;;;;;;;;;;;;4970965;28;1926;-40
2023/01/07 16:59:20;;;;;;;;;;;;;;;;;;4971165;28;2179;-39
2023/01/07 17:01:47;;;;;;;;;;;;;;;;;;4972257;28;1917;-39
2023/01/07 17:04:17;;;;;;;;;;;;;;;;;;4972123;28;1877;-39
2023/01/07 17:06:44;;;;;;;;;;;;;;;;;;4972385;28;1681;-39
2023/01/07 17:09:24;;;;;;;;;;;;;;;;;;4972125;28;2320;-39
2023/01/07 17:11:51;;;;;;;;;;;;;;;;;;4972040;28;1773;-39
2023/01/07 17:14:34;;;;;;;;;;;;;;;;;;4971996;28;1700;-39
2023/01/07 17:17:03;;;;;;;;;;;;;;;;;;4954803;28;2389;-38
2023/01/07 17:19:38;;;;;;;;;;;;;;;;;;4972388;28;1896;-39
2023/01/07 17:22:24;;;;;;;;;;;;;;;;;;4972030;28;2078;-39
2023/01/07 17:24:51;;;;;;;;;;;;;;;;;;4972005;28;2166;-38
2023/01/07 17:27:21;;;;;;;;;;;;;;;;;;4971858;28;1590;-39
2023/01/07 17:29:48;;;;;;;;;;;;;;;;;;4971960;28;1664;-39
2023/01/07 17:32:16;;;;;;;;;;;;;;;;;;4971848;28;1913;-39
2023/01/07 17:34:44;;;;;;;;;;;;;;;;;;4970951;28;2360;-38
2023/01/07 17:37:12;;;;;;;;;;;;;;;;;;4984505;28;2119;-39
2023/01/07 17:39:40;;;;;;;;;;;;;;;;;;4991301;28;1867;-38
2023/01/07 17:45:04;;;;;;;;;;;;;;;;;;4994880;28;1939;-38
2023/01/07 17:47:31;;;;;;;;;;;;;;;;;;4995261;28;2098;-38
2023/01/07 17:50:13;;;;;;;;;;;;;;;;;;4995171;28;1793;-38